Aeroporto :
LOGIN :

Iscrizione | Disclaimer

   EN    FR    IT 

 










Sommario :    VFR   VFR Marginale   IFR   IFR Intensivo   IFR Molto Intensivo
Visibilità : 
Base nubi : 
>= 8 km
>= 3000ft
5 / 8 km
1000 / 3000 ft
1500m / 5 km
500 / 1000 ft
800 / 1500m
200 / 500 ft
< 800m
< 200 ft
Simboli :   Temporali  Nebbia  Neve Forte  Precipitazioni Forti  Vento > 20 kt
SIGMETs :   Varie  Temporali  Ghiacco  Turbolenza  Onda orograficha  Ceneri Vulcaniche






- Altitudine del aeroporto : 13 ft
- Codice IATA : SNR


LFRZ - St-Nazaire

ULTIMO METAR :
  • 130830Z AUTO VRB02KT 9999 SCT015 BKN036 17/12 Q1016 NOSIG

METARs OBSOLETI :
  • 130800Z AUTO VRB03KT 9999 BKN012 OVC018 15/13 Q1016 BECMG SCT030
  • 130730Z AUTO VRB03KT 9999 SCT009 15/13 Q1016 NOSIG
  • 130700Z AUTO VRB02KT 9000 FEW043 15/13 Q1016 NOSIG
  • 130630Z AUTO 33005KT 9000 NSC 14/13 Q1016 NOSIG
  • 130600Z AUTO 31004KT 280V340 9000 NSC 13/12 Q1016 NOSIG
  • 130530Z AUTO 30004KT 280V350 9999 FEW039 13/12 Q1016 NOSIG
  • 130500Z AUTO 30005KT 270V330 9999 SCT036 13/12 Q1016 NOSIG
  • 130430Z AUTO 30003KT 270V330 9999 BKN030 13/12 Q1016 NOSIG
  • 130400Z AUTO 28003KT 9999 BKN031 13/12 Q1016 TEMPO 2000 BR

TAF TAF LFRZ
Valido dal 13 a 06 ore il 14 a 06 ore UTC


130500Z 1306/1406 VRB03KT 9999 SCT030
BECMG 1312/1314 22010KT
BECMG 1315/1317 30010KT
BECMG 1320/1322 VRB04KT
TEMPO 1400/1406 3000 BR
PROB30
TEMPO 1403/1406 0400 FG VV///



MetMap, La meteo Aeronautica in un colpo d'occhio ! - Copyright ORBIFLY Dicembre 2007 - Disclaimer

ORBIFLY MET'MAP TEAM :

Programmazione e sviluppo : Alexandra Zaïnal
Concezione : Baudouin d'Aumeries
Supporto tecnico e logistico : Manuel Goepfert
Aiuto : Marc-Olivier Méhu
Aiuto per la traduzione : Arnaldo La Scala




FONTI E CREDITI :

   NOAA